EFW568X EGKK-LPPR
Flight info
| Callsign | EFW568X |
|---|---|
| Flight time | 2h 1m |
| Altitude | 33000 |
| Route | NOVMA L620 SAM M195 LORKU DCT EBOMO DCT COQUE DCT KORUL DCT ELTEP/N0402F230 T328 ASPOR |
| Aircraft | A321/M-SDE3FGIJ1KRWXY/SB1 |
Departure
| Time | 2026-04-17 09:32 |
|---|---|
| Airport | London Gatwick Airport (EGKK) |
Arrival
| Time | 2026-04-17 11:33 |
|---|---|
| Airport | Francisco de Sá Carneiro Airport (LPPR) |
| Time | Latitude | Longitude | Altitude | Speed | Heading |
|---|---|---|---|---|---|
| 2026-04-17 09:01 | 51.15404 | -0.16407 | 215 ft | 0 kts | 78° |
| 2026-04-17 09:23 | 51.15401 | -0.16428 | 214 ft | 4 kts | 78° |
| 2026-04-17 09:23 | 51.15395 | -0.16469 | 216 ft | 4 kts | 72° |
| 2026-04-17 09:23 | 51.15383 | -0.16491 | 211 ft | 4 kts | 355° |
| 2026-04-17 09:23 | 51.15363 | -0.16486 | 216 ft | 4 kts | 348° |
| 2026-04-17 09:24 | 51.15345 | -0.16479 | 214 ft | 0 kts | 348° |
| 2026-04-17 09:26 | 51.15347 | -0.16480 | 213 ft | 1 kts | 348° |
| 2026-04-17 09:27 | 51.15356 | -0.16483 | 215 ft | 2 kts | 348° |
| 2026-04-17 09:27 | 51.15377 | -0.16490 | 208 ft | 5 kts | 347° |
| 2026-04-17 09:27 | 51.15411 | -0.16515 | 216 ft | 5 kts | 302° |
| 2026-04-17 09:27 | 51.15409 | -0.16578 | 207 ft | 6 kts | 255° |
| 2026-04-17 09:28 | 51.15396 | -0.16646 | 207 ft | 7 kts | 252° |
| 2026-04-17 09:28 | 51.15382 | -0.16724 | 207 ft | 8 kts | 258° |
| 2026-04-17 09:28 | 51.15372 | -0.16814 | 211 ft | 9 kts | 260° |
| 2026-04-17 09:28 | 51.15361 | -0.16918 | 209 ft | 10 kts | 259° |
| 2026-04-17 09:29 | 51.15346 | -0.17039 | 215 ft | 12 kts | 257° |
| 2026-04-17 09:29 | 51.15328 | -0.17167 | 213 ft | 12 kts | 257° |
| 2026-04-17 09:29 | 51.15310 | -0.17291 | 208 ft | 10 kts | 257° |
| 2026-04-17 09:29 | 51.15266 | -0.17343 | 211 ft | 9 kts | 163° |
| 2026-04-17 09:30 | 51.15218 | -0.17282 | 211 ft | 9 kts | 146° |
| 2026-04-17 09:30 | 51.15181 | -0.17205 | 204 ft | 9 kts | 91° |
| 2026-04-17 09:30 | 51.15193 | -0.17097 | 208 ft | 10 kts | 78° |
| 2026-04-17 09:30 | 51.15209 | -0.16982 | 204 ft | 11 kts | 77° |
| 2026-04-17 09:31 | 51.15225 | -0.16867 | 207 ft | 9 kts | 83° |
| 2026-04-17 09:31 | 51.15191 | -0.16793 | 210 ft | 9 kts | 157° |
| 2026-04-17 09:31 | 51.15136 | -0.16781 | 208 ft | 4 kts | 190° |
| 2026-04-17 09:31 | 51.15118 | -0.16829 | 210 ft | 6 kts | 252° |
| 2026-04-17 09:32 | 51.15087 | -0.17054 | 213 ft | 51 kts | 257° |
| 2026-04-17 09:32 | 51.14961 | -0.17963 | 206 ft | 115 kts | 257° |
| 2026-04-17 09:32 | 51.14748 | -0.19505 | 219 ft | 166 kts | 256° |
| 2026-04-17 09:32 | 51.14489 | -0.21312 | 863 ft | 164 kts | 252° |
| 2026-04-17 09:33 | 51.14324 | -0.22482 | 1401 ft | 161 kts | 254° |
| 2026-04-17 09:33 | 51.14078 | -0.24248 | 1841 ft | 172 kts | 255° |
| 2026-04-17 09:33 | 51.13805 | -0.26230 | 2092 ft | 193 kts | 255° |
| 2026-04-17 09:33 | 51.13498 | -0.28436 | 2229 ft | 215 kts | 255° |
| 2026-04-17 09:34 | 51.13154 | -0.30892 | 2476 ft | 237 kts | 256° |
| 2026-04-17 09:34 | 51.12792 | -0.33496 | 3126 ft | 243 kts | 256° |
| 2026-04-17 09:34 | 51.12431 | -0.36132 | 3879 ft | 244 kts | 255° |
| 2026-04-17 09:34 | 51.12069 | -0.38784 | 4578 ft | 246 kts | 255° |
| 2026-04-17 09:35 | 51.11704 | -0.41460 | 5262 ft | 249 kts | 256° |
| 2026-04-17 09:35 | 51.11151 | -0.44081 | 5894 ft | 252 kts | 243° |
| 2026-04-17 09:35 | 51.10374 | -0.46562 | 6539 ft | 255 kts | 243° |
| 2026-04-17 09:35 | 51.09572 | -0.49113 | 7101 ft | 259 kts | 243° |
| 2026-04-17 09:36 | 51.08765 | -0.51686 | 7735 ft | 261 kts | 243° |
| 2026-04-17 09:36 | 51.07947 | -0.54295 | 8105 ft | 264 kts | 243° |
| 2026-04-17 09:36 | 51.07128 | -0.56916 | 8705 ft | 264 kts | 243° |
| 2026-04-17 09:36 | 51.06314 | -0.59528 | 9389 ft | 266 kts | 244° |
| 2026-04-17 09:37 | 51.05517 | -0.62203 | 10049 ft | 268 kts | 249° |
| 2026-04-17 09:37 | 51.05034 | -0.65094 | 10456 ft | 279 kts | 256° |
| 2026-04-17 09:37 | 51.04613 | -0.68226 | 10586 ft | 298 kts | 257° |
| 2026-04-17 09:37 | 51.04168 | -0.71549 | 10711 ft | 316 kts | 257° |
| 2026-04-17 09:38 | 51.03698 | -0.75057 | 10882 ft | 331 kts | 257° |
| 2026-04-17 09:38 | 51.03212 | -0.78669 | 11313 ft | 337 kts | 257° |
| 2026-04-17 09:38 | 51.02726 | -0.82274 | 11833 ft | 339 kts | 256° |
| 2026-04-17 09:38 | 51.02230 | -0.85946 | 12385 ft | 341 kts | 256° |
| 2026-04-17 09:39 | 51.01731 | -0.89641 | 12936 ft | 343 kts | 256° |
| 2026-04-17 09:39 | 51.01225 | -0.93358 | 13495 ft | 345 kts | 256° |
| 2026-04-17 09:39 | 51.00713 | -0.97095 | 14031 ft | 347 kts | 256° |
| 2026-04-17 09:39 | 51.00196 | -1.00856 | 14521 ft | 350 kts | 256° |
| 2026-04-17 09:40 | 50.99676 | -1.04643 | 14983 ft | 352 kts | 256° |
| 2026-04-17 09:40 | 50.99150 | -1.08464 | 15450 ft | 354 kts | 255° |
| 2026-04-17 09:40 | 50.98625 | -1.12288 | 15928 ft | 357 kts | 255° |
| 2026-04-17 09:40 | 50.98094 | -1.16146 | 16389 ft | 359 kts | 255° |
| 2026-04-17 09:41 | 50.97551 | -1.20038 | 16876 ft | 361 kts | 255° |
| 2026-04-17 09:41 | 50.97005 | -1.23939 | 17345 ft | 363 kts | 255° |
| 2026-04-17 09:41 | 50.96449 | -1.27805 | 17767 ft | 365 kts | 252° |
| 2026-04-17 09:41 | 50.95537 | -1.31554 | 18184 ft | 365 kts | 241° |
| 2026-04-17 09:42 | 50.94143 | -1.34917 | 18580 ft | 366 kts | 230° |
| 2026-04-17 09:42 | 50.92321 | -1.37752 | 18945 ft | 369 kts | 219° |
| 2026-04-17 09:42 | 50.90199 | -1.40058 | 19316 ft | 371 kts | 214° |
| 2026-04-17 09:42 | 50.88037 | -1.42305 | 19733 ft | 372 kts | 214° |
| 2026-04-17 09:43 | 50.85875 | -1.44552 | 20142 ft | 372 kts | 215° |
| 2026-04-17 09:43 | 50.83712 | -1.46798 | 20503 ft | 373 kts | 215° |
| 2026-04-17 09:43 | 50.81534 | -1.49061 | 20863 ft | 375 kts | 215° |
| 2026-04-17 09:43 | 50.79347 | -1.51332 | 21230 ft | 377 kts | 215° |
| 2026-04-17 09:44 | 50.77144 | -1.53621 | 21591 ft | 378 kts | 215° |
| 2026-04-17 09:44 | 50.74938 | -1.55909 | 21947 ft | 380 kts | 215° |
| 2026-04-17 09:44 | 50.72719 | -1.58199 | 22299 ft | 382 kts | 215° |
| 2026-04-17 09:44 | 50.70488 | -1.60494 | 22651 ft | 383 kts | 215° |
| 2026-04-17 09:45 | 50.68246 | -1.62795 | 23003 ft | 385 kts | 215° |
| 2026-04-17 09:45 | 50.66025 | -1.65076 | 23348 ft | 387 kts | 215° |
| 2026-04-17 09:45 | 50.63760 | -1.67408 | 23682 ft | 388 kts | 215° |
| 2026-04-17 09:45 | 50.61490 | -1.69745 | 23943 ft | 391 kts | 215° |
| 2026-04-17 09:46 | 50.59203 | -1.72089 | 24202 ft | 393 kts | 215° |
| 2026-04-17 09:46 | 50.56904 | -1.74440 | 24486 ft | 395 kts | 215° |
| 2026-04-17 09:46 | 50.54598 | -1.76800 | 24769 ft | 396 kts | 215° |
| 2026-04-17 09:46 | 50.52284 | -1.79168 | 25041 ft | 397 kts | 215° |
| 2026-04-17 09:47 | 50.49961 | -1.81542 | 25318 ft | 399 kts | 215° |
| 2026-04-17 09:47 | 50.47629 | -1.83923 | 25588 ft | 400 kts | 215° |
| 2026-04-17 09:47 | 50.45289 | -1.86308 | 25887 ft | 401 kts | 215° |
| 2026-04-17 09:47 | 50.42946 | -1.88690 | 26218 ft | 401 kts | 215° |
| 2026-04-17 09:48 | 50.40631 | -1.91039 | 26510 ft | 402 kts | 215° |
| 2026-04-17 09:48 | 50.38277 | -1.93429 | 26740 ft | 404 kts | 215° |
| 2026-04-17 09:48 | 50.35911 | -1.95833 | 26972 ft | 406 kts | 215° |
| 2026-04-17 09:48 | 50.33534 | -1.98244 | 27220 ft | 408 kts | 215° |
| 2026-04-17 09:49 | 50.31147 | -2.00659 | 27481 ft | 409 kts | 215° |
| 2026-04-17 09:49 | 50.28750 | -2.03078 | 27713 ft | 411 kts | 215° |
| 2026-04-17 09:49 | 50.26343 | -2.05502 | 27948 ft | 412 kts | 215° |
| 2026-04-17 09:49 | 50.23929 | -2.07933 | 28185 ft | 413 kts | 215° |
| 2026-04-17 09:50 | 50.21495 | -2.10344 | 28397 ft | 415 kts | 214° |
| 2026-04-17 09:50 | 50.19036 | -2.12740 | 28604 ft | 416 kts | 214° |
| 2026-04-17 09:50 | 50.16579 | -2.15119 | 28777 ft | 417 kts | 214° |
| 2026-04-17 09:50 | 50.14104 | -2.17516 | 28924 ft | 420 kts | 214° |
| 2026-04-17 09:51 | 50.11621 | -2.19921 | 29136 ft | 420 kts | 214° |
| 2026-04-17 09:51 | 50.09132 | -2.22327 | 29402 ft | 419 kts | 214° |
| 2026-04-17 09:51 | 50.06687 | -2.24688 | 29674 ft | 418 kts | 214° |
| 2026-04-17 09:51 | 50.04216 | -2.27078 | 29930 ft | 418 kts | 214° |
| 2026-04-17 09:52 | 50.01749 | -2.29463 | 30254 ft | 416 kts | 214° |
| 2026-04-17 09:52 | 49.99298 | -2.31826 | 30557 ft | 413 kts | 214° |
| 2026-04-17 09:52 | 49.96859 | -2.34174 | 30832 ft | 411 kts | 214° |
| 2026-04-17 09:52 | 49.94421 | -2.36521 | 31018 ft | 411 kts | 214° |
| 2026-04-17 09:53 | 49.91993 | -2.38864 | 31198 ft | 411 kts | 214° |
| 2026-04-17 09:53 | 49.89559 | -2.41214 | 31368 ft | 412 kts | 214° |
| 2026-04-17 09:53 | 49.87156 | -2.43529 | 31561 ft | 412 kts | 214° |
| 2026-04-17 09:53 | 49.84696 | -2.45895 | 31770 ft | 411 kts | 214° |
| 2026-04-17 09:54 | 49.82296 | -2.48199 | 31974 ft | 411 kts | 214° |
| 2026-04-17 09:54 | 49.79858 | -2.50536 | 32186 ft | 410 kts | 214° |
| 2026-04-17 09:54 | 49.77427 | -2.52866 | 32395 ft | 410 kts | 214° |
| 2026-04-17 09:54 | 49.75000 | -2.55187 | 32599 ft | 410 kts | 214° |
| 2026-04-17 09:55 | 49.72579 | -2.57498 | 32792 ft | 409 kts | 214° |
| 2026-04-17 09:55 | 49.70161 | -2.59804 | 32958 ft | 409 kts | 214° |
| 2026-04-17 09:55 | 49.67735 | -2.62115 | 33126 ft | 410 kts | 214° |
| 2026-04-17 09:55 | 49.65303 | -2.64429 | 33200 ft | 411 kts | 214° |
| 2026-04-17 09:56 | 49.60442 | -2.69036 | 33195 ft | 411 kts | 214° |
| 2026-04-17 09:56 | 49.55610 | -2.73613 | 33193 ft | 408 kts | 214° |
| 2026-04-17 09:57 | 49.50777 | -2.78186 | 33203 ft | 407 kts | 213° |
| 2026-04-17 09:57 | 49.45939 | -2.82753 | 33200 ft | 409 kts | 213° |
| 2026-04-17 09:58 | 49.41082 | -2.87325 | 33193 ft | 409 kts | 213° |
| 2026-04-17 09:58 | 49.36218 | -2.91883 | 33196 ft | 409 kts | 213° |
| 2026-04-17 09:59 | 49.31378 | -2.96413 | 33196 ft | 410 kts | 213° |
| 2026-04-17 09:59 | 49.26512 | -3.00964 | 33177 ft | 410 kts | 213° |
| 2026-04-17 10:00 | 49.21623 | -3.05520 | 33198 ft | 411 kts | 213° |
| 2026-04-17 10:00 | 49.16724 | -3.10067 | 33215 ft | 412 kts | 213° |
| 2026-04-17 10:01 | 49.11845 | -3.14603 | 33198 ft | 410 kts | 213° |
| 2026-04-17 10:01 | 49.07000 | -3.19101 | 33193 ft | 410 kts | 213° |
| 2026-04-17 10:02 | 49.02123 | -3.23607 | 33184 ft | 410 kts | 213° |
| 2026-04-17 10:02 | 48.97226 | -3.28119 | 33193 ft | 411 kts | 212° |
| 2026-04-17 10:03 | 48.92309 | -3.32622 | 33193 ft | 412 kts | 212° |
| 2026-04-17 10:03 | 48.87409 | -3.37114 | 33193 ft | 411 kts | 212° |
| 2026-04-17 10:04 | 48.82538 | -3.41578 | 33193 ft | 411 kts | 212° |
| 2026-04-17 10:04 | 48.77634 | -3.46060 | 33193 ft | 411 kts | 212° |
| 2026-04-17 10:05 | 48.72725 | -3.50529 | 33193 ft | 410 kts | 212° |
| 2026-04-17 10:05 | 48.67840 | -3.54962 | 33193 ft | 409 kts | 212° |
| 2026-04-17 10:06 | 48.62958 | -3.59392 | 33194 ft | 408 kts | 212° |
| 2026-04-17 10:06 | 48.58074 | -3.63803 | 33179 ft | 409 kts | 212° |
| 2026-04-17 10:07 | 48.53196 | -3.68204 | 33189 ft | 411 kts | 212° |
| 2026-04-17 10:07 | 48.48246 | -3.72660 | 33190 ft | 411 kts | 212° |
| 2026-04-17 10:08 | 48.43370 | -3.77036 | 33190 ft | 411 kts | 212° |
| 2026-04-17 10:08 | 48.38454 | -3.81452 | 33190 ft | 411 kts | 212° |
| 2026-04-17 10:09 | 48.33526 | -3.85865 | 33190 ft | 412 kts | 212° |
| 2026-04-17 10:09 | 48.28606 | -3.90247 | 33192 ft | 410 kts | 212° |
| 2026-04-17 10:10 | 48.23696 | -3.94624 | 33205 ft | 410 kts | 212° |
| 2026-04-17 10:11 | 48.16325 | -4.01160 | 33211 ft | 410 kts | 212° |
| 2026-04-17 10:11 | 48.11425 | -4.05492 | 33216 ft | 412 kts | 212° |
| 2026-04-17 10:12 | 48.06482 | -4.09861 | 33219 ft | 413 kts | 212° |
| 2026-04-17 10:12 | 48.01545 | -4.14226 | 33219 ft | 413 kts | 212° |
| 2026-04-17 10:13 | 47.96594 | -4.18577 | 33220 ft | 413 kts | 212° |
| 2026-04-17 10:13 | 47.91632 | -4.22924 | 33215 ft | 414 kts | 211° |
| 2026-04-17 10:14 | 47.86661 | -4.27279 | 33219 ft | 414 kts | 211° |
| 2026-04-17 10:14 | 47.81692 | -4.31620 | 33220 ft | 414 kts | 212° |
| 2026-04-17 10:15 | 47.76806 | -4.36068 | 33215 ft | 413 kts | 213° |
| 2026-04-17 10:15 | 47.71943 | -4.40638 | 33216 ft | 413 kts | 213° |
| 2026-04-17 10:16 | 47.67067 | -4.45192 | 33220 ft | 414 kts | 213° |
| 2026-04-17 10:16 | 47.62171 | -4.49709 | 33220 ft | 414 kts | 213° |
| 2026-04-17 10:17 | 47.57269 | -4.54206 | 33218 ft | 414 kts | 213° |
| 2026-04-17 10:17 | 47.52363 | -4.58699 | 33217 ft | 414 kts | 213° |
| 2026-04-17 10:18 | 47.47459 | -4.63192 | 33220 ft | 415 kts | 213° |
| 2026-04-17 10:18 | 47.42551 | -4.67689 | 33220 ft | 415 kts | 213° |
| 2026-04-17 10:19 | 47.38465 | -4.71413 | 33222 ft | 415 kts | 213° |
| 2026-04-17 10:19 | 47.32744 | -4.76615 | 33223 ft | 415 kts | 213° |
| 2026-04-17 10:20 | 47.28630 | -4.80349 | 33220 ft | 415 kts | 213° |
| 2026-04-17 10:20 | 47.23709 | -4.84813 | 33219 ft | 415 kts | 213° |
| 2026-04-17 10:21 | 47.18810 | -4.89244 | 33219 ft | 415 kts | 213° |
| 2026-04-17 10:21 | 47.13882 | -4.93684 | 33223 ft | 415 kts | 213° |
| 2026-04-17 10:22 | 47.08961 | -4.98110 | 33225 ft | 414 kts | 213° |
| 2026-04-17 10:22 | 47.04056 | -5.02527 | 33226 ft | 413 kts | 213° |
| 2026-04-17 10:23 | 46.99160 | -5.06935 | 33225 ft | 413 kts | 213° |
| 2026-04-17 10:23 | 46.94260 | -5.11332 | 33225 ft | 413 kts | 213° |
| 2026-04-17 10:24 | 46.89365 | -5.15710 | 33225 ft | 413 kts | 213° |
| 2026-04-17 10:24 | 46.84490 | -5.20066 | 33207 ft | 413 kts | 213° |
| 2026-04-17 10:25 | 46.79575 | -5.24457 | 33223 ft | 414 kts | 213° |
| 2026-04-17 10:25 | 46.74656 | -5.28831 | 33243 ft | 414 kts | 213° |
| 2026-04-17 10:26 | 46.69740 | -5.33190 | 33222 ft | 413 kts | 213° |
| 2026-04-17 10:26 | 46.64831 | -5.37545 | 33222 ft | 413 kts | 213° |
| 2026-04-17 10:27 | 46.59920 | -5.41885 | 33224 ft | 413 kts | 213° |
| 2026-04-17 10:27 | 46.55003 | -5.46230 | 33222 ft | 413 kts | 213° |
| 2026-04-17 10:28 | 46.50092 | -5.50563 | 33220 ft | 413 kts | 213° |
| 2026-04-17 10:28 | 46.45185 | -5.54881 | 33222 ft | 413 kts | 213° |
| 2026-04-17 10:29 | 46.40266 | -5.59196 | 33226 ft | 412 kts | 213° |
| 2026-04-17 10:29 | 46.35392 | -5.63452 | 33220 ft | 411 kts | 213° |
| 2026-04-17 10:30 | 46.30490 | -5.67713 | 33227 ft | 411 kts | 213° |
| 2026-04-17 10:30 | 46.25593 | -5.71967 | 33227 ft | 410 kts | 213° |
| 2026-04-17 10:31 | 46.20711 | -5.76220 | 33226 ft | 410 kts | 213° |
| 2026-04-17 10:31 | 46.15826 | -5.80456 | 33227 ft | 409 kts | 213° |
| 2026-04-17 10:32 | 46.10940 | -5.84697 | 33226 ft | 409 kts | 213° |
| 2026-04-17 10:32 | 46.06091 | -5.88890 | 33225 ft | 409 kts | 213° |
| 2026-04-17 10:33 | 46.01204 | -5.93095 | 33209 ft | 409 kts | 213° |
| 2026-04-17 10:33 | 45.96325 | -5.97292 | 33229 ft | 408 kts | 213° |
| 2026-04-17 10:34 | 45.91454 | -6.01476 | 33228 ft | 407 kts | 213° |
| 2026-04-17 10:34 | 45.86578 | -6.05653 | 33226 ft | 407 kts | 213° |
| 2026-04-17 10:35 | 45.81717 | -6.09819 | 33223 ft | 407 kts | 213° |
| 2026-04-17 10:35 | 45.76846 | -6.13964 | 33226 ft | 407 kts | 213° |
| 2026-04-17 10:36 | 45.71982 | -6.18101 | 33226 ft | 406 kts | 213° |
| 2026-04-17 10:36 | 45.67146 | -6.22211 | 33226 ft | 406 kts | 213° |
| 2026-04-17 10:37 | 45.62274 | -6.26329 | 33248 ft | 406 kts | 213° |
| 2026-04-17 10:37 | 45.57442 | -6.30419 | 33227 ft | 405 kts | 213° |
| 2026-04-17 10:38 | 45.52596 | -6.34517 | 33228 ft | 404 kts | 213° |
| 2026-04-17 10:38 | 45.47749 | -6.38599 | 33228 ft | 404 kts | 213° |
| 2026-04-17 10:39 | 45.42903 | -6.42681 | 33226 ft | 404 kts | 213° |
| 2026-04-17 10:39 | 45.38056 | -6.46756 | 33221 ft | 404 kts | 213° |
| 2026-04-17 10:40 | 45.33200 | -6.50823 | 33226 ft | 404 kts | 213° |
| 2026-04-17 10:40 | 45.28346 | -6.54867 | 33224 ft | 404 kts | 213° |
| 2026-04-17 10:41 | 45.23497 | -6.58913 | 33222 ft | 403 kts | 213° |
| 2026-04-17 10:41 | 45.18669 | -6.62946 | 33200 ft | 403 kts | 213° |
| 2026-04-17 10:42 | 45.13864 | -6.66944 | 33225 ft | 402 kts | 213° |
| 2026-04-17 10:42 | 45.09038 | -6.70949 | 33218 ft | 402 kts | 213° |
| 2026-04-17 10:43 | 45.04198 | -6.74950 | 33215 ft | 402 kts | 213° |
| 2026-04-17 10:43 | 44.99367 | -6.78944 | 33228 ft | 402 kts | 213° |
| 2026-04-17 10:44 | 44.94526 | -6.82925 | 33225 ft | 403 kts | 213° |
| 2026-04-17 10:44 | 44.89679 | -6.86905 | 33239 ft | 403 kts | 213° |
| 2026-04-17 10:45 | 44.84837 | -6.90864 | 33216 ft | 402 kts | 211° |
| 2026-04-17 10:45 | 44.79549 | -6.93574 | 33230 ft | 407 kts | 200° |
| 2026-04-17 10:46 | 44.74124 | -6.95761 | 33222 ft | 408 kts | 200° |
| 2026-04-17 10:46 | 44.68670 | -6.97961 | 33226 ft | 408 kts | 200° |
| 2026-04-17 10:47 | 44.63207 | -7.00164 | 33220 ft | 408 kts | 200° |
| 2026-04-17 10:47 | 44.57746 | -7.02351 | 33219 ft | 408 kts | 200° |
| 2026-04-17 10:48 | 44.52278 | -7.04545 | 33219 ft | 408 kts | 200° |
| 2026-04-17 10:48 | 44.46856 | -7.06717 | 33228 ft | 408 kts | 200° |
| 2026-04-17 10:49 | 44.41393 | -7.08896 | 33214 ft | 408 kts | 200° |
| 2026-04-17 10:49 | 44.35925 | -7.11070 | 33219 ft | 409 kts | 200° |
| 2026-04-17 10:50 | 44.30449 | -7.13250 | 33220 ft | 409 kts | 200° |
| 2026-04-17 10:50 | 44.24969 | -7.15421 | 33217 ft | 409 kts | 200° |
| 2026-04-17 10:51 | 44.19494 | -7.17591 | 33211 ft | 409 kts | 200° |
| 2026-04-17 10:51 | 44.14044 | -7.19747 | 33214 ft | 410 kts | 199° |
| 2026-04-17 10:52 | 44.08559 | -7.21909 | 33220 ft | 410 kts | 199° |
| 2026-04-17 10:52 | 44.03075 | -7.24065 | 33213 ft | 408 kts | 199° |
| 2026-04-17 10:53 | 43.97606 | -7.26208 | 33206 ft | 409 kts | 199° |
| 2026-04-17 10:53 | 43.92121 | -7.28363 | 33214 ft | 410 kts | 199° |
| 2026-04-17 10:54 | 43.86635 | -7.30514 | 33212 ft | 410 kts | 199° |
| 2026-04-17 10:54 | 43.81142 | -7.32659 | 33208 ft | 410 kts | 199° |
| 2026-04-17 10:55 | 43.75691 | -7.34786 | 33209 ft | 411 kts | 199° |
| 2026-04-17 10:55 | 43.70189 | -7.36923 | 33210 ft | 411 kts | 199° |
| 2026-04-17 10:56 | 43.64674 | -7.39066 | 33208 ft | 411 kts | 199° |
| 2026-04-17 10:56 | 43.59168 | -7.41205 | 33207 ft | 411 kts | 199° |
| 2026-04-17 10:57 | 43.53648 | -7.43346 | 33207 ft | 412 kts | 199° |
| 2026-04-17 10:57 | 43.48160 | -7.45466 | 33205 ft | 412 kts | 199° |
| 2026-04-17 10:58 | 43.42632 | -7.47594 | 33200 ft | 412 kts | 199° |
| 2026-04-17 10:58 | 43.37113 | -7.49717 | 33191 ft | 412 kts | 199° |
| 2026-04-17 10:59 | 43.31584 | -7.51844 | 33191 ft | 413 kts | 199° |
| 2026-04-17 10:59 | 43.26051 | -7.53960 | 33195 ft | 413 kts | 199° |
| 2026-04-17 11:00 | 43.20512 | -7.56074 | 33195 ft | 412 kts | 199° |
| 2026-04-17 11:00 | 43.14981 | -7.58194 | 33194 ft | 413 kts | 199° |
| 2026-04-17 11:01 | 43.09432 | -7.60318 | 33188 ft | 414 kts | 198° |
| 2026-04-17 11:01 | 43.03873 | -7.62426 | 33189 ft | 413 kts | 198° |
| 2026-04-17 11:02 | 42.98360 | -7.64508 | 33191 ft | 413 kts | 198° |
| 2026-04-17 11:02 | 42.92775 | -7.66624 | 33186 ft | 414 kts | 198° |
| 2026-04-17 11:03 | 42.87253 | -7.68716 | 33185 ft | 414 kts | 198° |
| 2026-04-17 11:03 | 42.81688 | -7.70814 | 33183 ft | 415 kts | 198° |
| 2026-04-17 11:04 | 42.76129 | -7.72908 | 33179 ft | 414 kts | 198° |
| 2026-04-17 11:04 | 42.71498 | -7.74646 | 33180 ft | 415 kts | 198° |
| 2026-04-17 11:05 | 42.65930 | -7.76742 | 33176 ft | 415 kts | 198° |
| 2026-04-17 11:05 | 42.60360 | -7.78839 | 33180 ft | 415 kts | 198° |
| 2026-04-17 11:06 | 42.54793 | -7.80939 | 33177 ft | 415 kts | 198° |
| 2026-04-17 11:06 | 42.49223 | -7.83024 | 33174 ft | 415 kts | 198° |
| 2026-04-17 11:07 | 42.43649 | -7.85109 | 33176 ft | 415 kts | 198° |
| 2026-04-17 11:07 | 42.38109 | -7.87182 | 33170 ft | 415 kts | 198° |
| 2026-04-17 11:08 | 42.32535 | -7.89266 | 33167 ft | 416 kts | 198° |
| 2026-04-17 11:08 | 42.26964 | -7.91340 | 32294 ft | 417 kts | 198° |
| 2026-04-17 11:08 | 42.24126 | -7.92399 | 31108 ft | 427 kts | 198° |
| 2026-04-17 11:09 | 42.21255 | -7.93469 | 30226 ft | 429 kts | 198° |
| 2026-04-17 11:09 | 42.18371 | -7.94540 | 29353 ft | 428 kts | 198° |
| 2026-04-17 11:09 | 42.15523 | -7.95587 | 28857 ft | 420 kts | 198° |
| 2026-04-17 11:10 | 42.09974 | -7.97628 | 27846 ft | 406 kts | 198° |
| 2026-04-17 11:10 | 42.07271 | -7.98624 | 27342 ft | 399 kts | 198° |
| 2026-04-17 11:10 | 42.04616 | -7.99603 | 26864 ft | 393 kts | 198° |
| 2026-04-17 11:10 | 42.01998 | -8.00572 | 26390 ft | 387 kts | 198° |
| 2026-04-17 11:11 | 41.99456 | -8.01515 | 25919 ft | 381 kts | 198° |
| 2026-04-17 11:11 | 41.96913 | -8.02457 | 25469 ft | 376 kts | 198° |
| 2026-04-17 11:11 | 41.94410 | -8.03377 | 25020 ft | 371 kts | 198° |
| 2026-04-17 11:11 | 41.91933 | -8.04285 | 24580 ft | 366 kts | 198° |
| 2026-04-17 11:12 | 41.89490 | -8.05179 | 24153 ft | 362 kts | 198° |
| 2026-04-17 11:12 | 41.87073 | -8.06067 | 23729 ft | 358 kts | 198° |
| 2026-04-17 11:12 | 41.84688 | -8.06943 | 23289 ft | 353 kts | 198° |
| 2026-04-17 11:12 | 41.82346 | -8.07835 | 22888 ft | 345 kts | 201° |
| 2026-04-17 11:13 | 41.80173 | -8.09111 | 22491 ft | 340 kts | 211° |
| 2026-04-17 11:13 | 41.78117 | -8.10672 | 22081 ft | 338 kts | 211° |
| 2026-04-17 11:13 | 41.76097 | -8.12192 | 21683 ft | 336 kts | 211° |
| 2026-04-17 11:13 | 41.74060 | -8.13714 | 21277 ft | 334 kts | 211° |
| 2026-04-17 11:14 | 41.72036 | -8.15228 | 20887 ft | 333 kts | 211° |
| 2026-04-17 11:14 | 41.69976 | -8.16622 | 20474 ft | 332 kts | 204° |
| 2026-04-17 11:14 | 41.67797 | -8.17647 | 20057 ft | 332 kts | 201° |
| 2026-04-17 11:14 | 41.65610 | -8.18640 | 19640 ft | 331 kts | 201° |
| 2026-04-17 11:15 | 41.63435 | -8.19630 | 19205 ft | 329 kts | 201° |
| 2026-04-17 11:15 | 41.61270 | -8.20620 | 18787 ft | 328 kts | 201° |
| 2026-04-17 11:15 | 41.59114 | -8.21606 | 18330 ft | 326 kts | 201° |
| 2026-04-17 11:15 | 41.56970 | -8.22587 | 17865 ft | 324 kts | 201° |
| 2026-04-17 11:16 | 41.54839 | -8.23559 | 17426 ft | 323 kts | 201° |
| 2026-04-17 11:16 | 41.52714 | -8.24528 | 16990 ft | 321 kts | 201° |
| 2026-04-17 11:16 | 41.50604 | -8.25492 | 16551 ft | 320 kts | 201° |
| 2026-04-17 11:16 | 41.48497 | -8.26455 | 16104 ft | 318 kts | 201° |
| 2026-04-17 11:17 | 41.46429 | -8.27399 | 15663 ft | 318 kts | 201° |
| 2026-04-17 11:17 | 41.44335 | -8.28351 | 15238 ft | 317 kts | 201° |
| 2026-04-17 11:17 | 41.42249 | -8.29299 | 14799 ft | 316 kts | 201° |
| 2026-04-17 11:17 | 41.40174 | -8.30244 | 14359 ft | 314 kts | 201° |
| 2026-04-17 11:18 | 41.38107 | -8.31183 | 13914 ft | 313 kts | 201° |
| 2026-04-17 11:18 | 41.36051 | -8.32115 | 13446 ft | 312 kts | 201° |
| 2026-04-17 11:18 | 41.34000 | -8.33044 | 13002 ft | 310 kts | 200° |
| 2026-04-17 11:18 | 41.31960 | -8.33968 | 12569 ft | 308 kts | 200° |
| 2026-04-17 11:19 | 41.29939 | -8.34884 | 12152 ft | 306 kts | 200° |
| 2026-04-17 11:19 | 41.27931 | -8.35793 | 11725 ft | 304 kts | 200° |
| 2026-04-17 11:19 | 41.25938 | -8.36696 | 11302 ft | 302 kts | 200° |
| 2026-04-17 11:19 | 41.23954 | -8.37593 | 10870 ft | 300 kts | 200° |
| 2026-04-17 11:20 | 41.22000 | -8.38473 | 10647 ft | 291 kts | 200° |
| 2026-04-17 11:20 | 41.20107 | -8.39325 | 10384 ft | 284 kts | 200° |
| 2026-04-17 11:20 | 41.18254 | -8.40159 | 10149 ft | 280 kts | 200° |
| 2026-04-17 11:20 | 41.16412 | -8.40989 | 10018 ft | 279 kts | 200° |
| 2026-04-17 11:21 | 41.14574 | -8.41819 | 9885 ft | 279 kts | 200° |
| 2026-04-17 11:21 | 41.12735 | -8.42645 | 9732 ft | 279 kts | 200° |
| 2026-04-17 11:21 | 41.10895 | -8.43472 | 9306 ft | 279 kts | 200° |
| 2026-04-17 11:21 | 41.09054 | -8.44298 | 8866 ft | 279 kts | 199° |
| 2026-04-17 11:22 | 41.07224 | -8.45116 | 8449 ft | 278 kts | 199° |
| 2026-04-17 11:22 | 41.05404 | -8.45932 | 8116 ft | 274 kts | 200° |
| 2026-04-17 11:22 | 41.03627 | -8.46732 | 7712 ft | 272 kts | 200° |
| 2026-04-17 11:22 | 41.01940 | -8.47828 | 7327 ft | 270 kts | 216° |
| 2026-04-17 11:23 | 41.00629 | -8.49588 | 6950 ft | 269 kts | 235° |
| 2026-04-17 11:23 | 40.99824 | -8.51816 | 6566 ft | 270 kts | 252° |
| 2026-04-17 11:23 | 40.99418 | -8.54224 | 6242 ft | 264 kts | 250° |
| 2026-04-17 11:23 | 40.98512 | -8.56257 | 5609 ft | 255 kts | 222° |
| 2026-04-17 11:24 | 40.97002 | -8.57412 | 4872 ft | 252 kts | 193° |
| 2026-04-17 11:24 | 40.95282 | -8.57385 | 4361 ft | 243 kts | 166° |
| 2026-04-17 11:24 | 40.93679 | -8.56991 | 3946 ft | 229 kts | 184° |
| 2026-04-17 11:24 | 40.92213 | -8.57661 | 3643 ft | 230 kts | 217° |
| 2026-04-17 11:25 | 40.91268 | -8.59326 | 3541 ft | 232 kts | 249° |
| 2026-04-17 11:25 | 40.91160 | -8.61367 | 3477 ft | 228 kts | 281° |
| 2026-04-17 11:25 | 40.91925 | -8.63203 | 3405 ft | 234 kts | 314° |
| 2026-04-17 11:25 | 40.93334 | -8.64223 | 3327 ft | 234 kts | 348° |
| 2026-04-17 11:26 | 40.94938 | -8.64102 | 3248 ft | 233 kts | 19° |
| 2026-04-17 11:26 | 40.96348 | -8.63071 | 3171 ft | 232 kts | 36° |
| 2026-04-17 11:26 | 40.97748 | -8.62011 | 3060 ft | 232 kts | 21° |
| 2026-04-17 11:26 | 40.99312 | -8.61597 | 3003 ft | 223 kts | 1° |
| 2026-04-17 11:27 | 41.00765 | -8.61822 | 2999 ft | 200 kts | 348° |
| 2026-04-17 11:27 | 41.02067 | -8.62173 | 2994 ft | 184 kts | 348° |
| 2026-04-17 11:27 | 41.03302 | -8.62501 | 3002 ft | 180 kts | 348° |
| 2026-04-17 11:27 | 41.04521 | -8.62823 | 3007 ft | 178 kts | 348° |
| 2026-04-17 11:28 | 41.05726 | -8.63147 | 3007 ft | 176 kts | 348° |
| 2026-04-17 11:28 | 41.06911 | -8.63464 | 3007 ft | 176 kts | 348° |
| 2026-04-17 11:28 | 41.08117 | -8.63780 | 3010 ft | 177 kts | 349° |
| 2026-04-17 11:28 | 41.09327 | -8.64096 | 3012 ft | 177 kts | 349° |
| 2026-04-17 11:29 | 41.10522 | -8.64409 | 2854 ft | 174 kts | 348° |
| 2026-04-17 11:29 | 41.11712 | -8.64718 | 2591 ft | 174 kts | 349° |
| 2026-04-17 11:29 | 41.12899 | -8.65024 | 2337 ft | 173 kts | 349° |
| 2026-04-17 11:29 | 41.14076 | -8.65329 | 2099 ft | 171 kts | 349° |
| 2026-04-17 11:30 | 41.15233 | -8.65629 | 1867 ft | 167 kts | 349° |
| 2026-04-17 11:30 | 41.16337 | -8.65916 | 1654 ft | 156 kts | 349° |
| 2026-04-17 11:30 | 41.17377 | -8.66188 | 1444 ft | 150 kts | 348° |
| 2026-04-17 11:30 | 41.18214 | -8.66407 | 1282 ft | 147 kts | 348° |
| 2026-04-17 11:31 | 41.18400 | -8.66455 | 1244 ft | 147 kts | 348° |
| 2026-04-17 11:32 | 41.19388 | -8.66715 | 1049 ft | 143 kts | 347° |
| 2026-04-17 11:32 | 41.20341 | -8.66967 | 872 ft | 142 kts | 348° |
| 2026-04-17 11:32 | 41.21324 | -8.67228 | 681 ft | 140 kts | 348° |
| 2026-04-17 11:32 | 41.22291 | -8.67469 | 500 ft | 142 kts | 349° |
| 2026-04-17 11:33 | 41.23259 | -8.67723 | 296 ft | 141 kts | 348° |
| 2026-04-17 11:33 | 41.24182 | -8.67962 | 216 ft | 118 kts | 348° |
| 2026-04-17 11:33 | 41.24796 | -8.68120 | 199 ft | 55 kts | 349° |
| 2026-04-17 11:33 | 41.25052 | -8.68182 | 185 ft | 25 kts | 359° |
| 2026-04-17 11:34 | 41.25205 | -8.68135 | 182 ft | 18 kts | 17° |
| 2026-04-17 11:34 | 41.25288 | -8.68089 | 179 ft | 10 kts | 46° |
| 2026-04-17 11:34 | 41.25274 | -8.68020 | 182 ft | 9 kts | 144° |
| 2026-04-17 11:34 | 41.25209 | -8.67999 | 193 ft | 11 kts | 171° |
| 2026-04-17 11:35 | 41.25124 | -8.67978 | 192 ft | 13 kts | 169° |
| 2026-04-17 11:35 | 41.25035 | -8.67954 | 198 ft | 14 kts | 169° |
| 2026-04-17 11:35 | 41.24933 | -8.67928 | 200 ft | 15 kts | 169° |
| 2026-04-17 11:35 | 41.24836 | -8.67881 | 214 ft | 15 kts | 147° |
| 2026-04-17 11:36 | 41.24728 | -8.67818 | 210 ft | 19 kts | 168° |
| 2026-04-17 11:36 | 41.24583 | -8.67780 | 217 ft | 22 kts | 169° |
| 2026-04-17 11:36 | 41.24437 | -8.67743 | 223 ft | 21 kts | 169° |
| 2026-04-17 11:36 | 41.24311 | -8.67697 | 231 ft | 17 kts | 148° |
| 2026-04-17 11:37 | 41.24241 | -8.67601 | 236 ft | 13 kts | 140° |
| 2026-04-17 11:37 | 41.24156 | -8.67562 | 238 ft | 14 kts | 169° |
| 2026-04-17 11:37 | 41.24052 | -8.67536 | 238 ft | 16 kts | 170° |
| 2026-04-17 11:37 | 41.23934 | -8.67506 | 238 ft | 18 kts | 169° |
| 2026-04-17 11:38 | 41.23819 | -8.67472 | 239 ft | 11 kts | 167° |
| 2026-04-17 11:38 | 41.23765 | -8.67458 | 239 ft | 9 kts | 169° |
| 2026-04-17 11:38 | 41.23689 | -8.67441 | 238 ft | 13 kts | 171° |
| 2026-04-17 11:38 | 41.23583 | -8.67414 | 238 ft | 17 kts | 169° |
| 2026-04-17 11:39 | 41.23466 | -8.67384 | 239 ft | 16 kts | 169° |
| 2026-04-17 11:39 | 41.23389 | -8.67348 | 240 ft | 9 kts | 139° |
| 2026-04-17 11:39 | 41.23369 | -8.67296 | 242 ft | 4 kts | 111° |
| 2026-04-17 11:39 | 41.23363 | -8.67272 | 243 ft | 2 kts | 106° |
| 2026-04-17 11:40 | 41.23361 | -8.67244 | 245 ft | 5 kts | 90° |
| 2026-04-17 11:40 | 41.23370 | -8.67183 | 245 ft | 6 kts | 78° |
| 2026-04-17 11:40 | 41.23373 | -8.67160 | 245 ft | 0 kts | 79° |